Time;durP1;ratioP1;P1;durP2;ratioP2;P2;SDS_P1;SDS_P2;PMS_P1;PMS_P2;Temp;Humidity;BMP_temperature;BMP_pressure;BME280_temperature;BME280_humidity;BME280_pressure;Samples;Min_cycle;Max_cycle;Signal;HPM_P1;HPM_P2
2024/03/01 00:01:58;;;;;;;39.67;24.88;;;;;;;4.60;100.00;100661.13;5036539;28;20033;-70
2024/03/01 00:04:24;;;;;;;41.42;25.60;;;;;;;4.56;100.00;100658.94;5037448;28;20090;-70
2024/03/01 00:06:50;;;;;;;38.80;26.10;;;;;;;4.40;100.00;100638.41;5036737;28;20037;-71
2024/03/01 00:09:15;;;;;;;39.83;26.00;;;;;;;4.47;100.00;100658.94;5020302;28;20029;-70
2024/03/01 00:11:41;;;;;;;39.05;24.77;;;;;;;4.41;100.00;100656.09;5036007;28;20053;-70
2024/03/01 00:14:06;;;;;;;38.50;24.80;;;;;;;4.41;100.00;100661.41;5035816;28;20040;-70
2024/03/01 00:16:32;;;;;;;36.45;24.55;;;;;;;4.35;100.00;100659.41;5016645;28;20050;-70
2024/03/01 00:18:57;;;;;;;38.00;25.08;;;;;;;4.28;100.00;100659.22;5033720;28;20484;-70
2024/03/01 00:21:23;;;;;;;37.08;25.35;;;;;;;4.19;100.00;100638.88;5036053;28;20045;-70
2024/03/01 00:23:49;;;;;;;37.15;24.80;;;;;;;4.29;100.00;100666.19;5037252;28;20025;-70
2024/03/01 00:26:14;;;;;;;36.33;23.73;;;;;;;4.28;100.00;100653.06;5036222;28;20454;-71
2024/03/01 00:28:40;;;;;;;38.00;24.65;;;;;;;4.22;100.00;100652.69;5035601;28;20021;-70
2024/03/01 00:31:05;;;;;;;37.97;24.88;;;;;;;4.22;100.00;100660.69;5036917;28;20411;-70
2024/03/01 00:33:31;;;;;;;36.97;24.10;;;;;;;4.19;100.00;100655.69;5037619;28;20064;-70
2024/03/01 00:35:57;;;;;;;38.08;24.25;;;;;;;4.16;100.00;100650.69;5035444;28;20610;-70
2024/03/01 00:38:22;;;;;;;36.58;24.45;;;;;;;4.02;100.00;100630.00;5019119;28;20057;-70
2024/03/01 00:40:48;;;;;;;36.78;23.65;;;;;;;4.06;100.00;100639.31;5037307;28;20120;-70
2024/03/01 00:43:14;;;;;;;38.55;25.92;;;;;;;4.07;100.00;100637.50;5037368;28;20060;-70
2024/03/01 00:45:39;;;;;;;40.58;25.55;;;;;;;4.04;100.00;100644.00;5036952;28;20472;-70
2024/03/01 00:48:10;;;;;;;39.28;25.52;;;;;;;4.02;100.00;100637.97;5036973;28;20427;-70
2024/03/01 00:50:36;;;;;;;37.10;25.13;;;;;;;4.02;100.00;100637.16;5039559;28;20045;-70
2024/03/01 00:53:03;;;;;;;40.13;25.45;;;;;;;4.00;100.00;100631.97;5040545;28;20404;-70
2024/03/01 00:55:29;;;;;;;38.42;26.45;;;;;;;3.97;100.00;100621.66;5039172;28;20037;-70
2024/03/01 00:57:55;;;;;;;39.42;25.55;;;;;;;4.00;100.00;100626.66;5022889;28;20021;-70
2024/03/01 01:00:20;;;;;;;39.95;25.92;;;;;;;4.02;100.00;100618.53;5039172;28;20037;-70
2024/03/01 01:02:46;;;;;;;36.38;25.02;;;;;;;4.03;100.00;100623.66;5041378;28;20040;-70
2024/03/01 01:05:11;;;;;;;40.90;25.10;;;;;;;3.89;100.00;100593.19;5007165;28;20060;-70
2024/03/01 01:07:37;;;;;;;39.25;25.73;;;;;;;4.06;100.00;100618.03;5039659;28;20021;-70
2024/03/01 01:10:04;;;;;;;40.03;25.90;;;;;;;4.11;100.00;100615.72;5039841;28;20059;-70
2024/03/01 01:12:30;;;;;;;44.08;26.33;;;;;;;4.11;100.00;100615.72;5039190;28;20131;-70
2024/03/01 01:14:58;;;;;;;38.67;25.85;;;;;;;4.12;100.00;100612.06;5040327;28;20025;-70
2024/03/01 01:17:26;;;;;;;37.83;26.25;;;;;;;4.13;100.00;100608.38;5039532;28;20029;-70
2024/03/01 01:19:55;;;;;;;40.03;26.63;;;;;;;3.62;100.00;100530.38;5039098;28;20040;-70
2024/03/01 01:22:22;;;;;;;41.67;26.80;;;;;;;4.11;100.00;100604.25;5040148;28;20021;-70
2024/03/01 01:24:48;;;;;;;40.97;26.45;;;;;;;3.92;100.00;100579.53;5039145;28;20026;-70
2024/03/01 01:27:13;;;;;;;38.40;26.45;;;;;;;3.94;100.00;100574.03;5039299;28;20499;-70
2024/03/01 01:29:39;;;;;;;38.30;25.90;;;;;;;4.07;100.00;100594.88;5040068;28;20423;-70
2024/03/01 01:32:04;;;;;;;44.42;26.45;;;;;;;4.08;100.00;100596.56;5022048;28;20029;-70
2024/03/01 01:34:30;;;;;;;40.05;26.15;;;;;;;4.05;100.00;100588.91;5038292;28;20033;-70
2024/03/01 01:36:56;;;;;;;40.58;25.73;;;;;;;4.05;100.00;100589.75;5022146;28;20040;-71
2024/03/01 01:39:22;;;;;;;38.95;26.13;;;;;;;4.00;100.00;100581.38;5038622;28;20044;-70
2024/03/01 01:41:47;;;;;;;38.45;25.75;;;;;;;4.10;100.00;100589.25;5039487;28;20033;-70
2024/03/01 01:44:13;;;;;;;38.10;25.77;;;;;;;4.09;100.00;100596.41;5038754;28;20033;-70
2024/03/01 01:46:38;;;;;;;39.22;26.48;;;;;;;4.09;100.00;100590.25;5038370;28;20033;-71
2024/03/01 01:49:05;;;;;;;39.03;24.52;;;;;;;4.11;100.00;100589.09;5005362;28;20072;-70
2024/03/01 01:51:32;;;;;;;37.95;26.05;;;;;;;3.98;100.00;100559.44;5038509;28;20032;-70
2024/03/01 01:53:57;;;;;;;40.40;25.70;;;;;;;4.12;100.00;100582.75;5040248;28;20029;-70
2024/03/01 01:56:24;;;;;;;40.33;25.90;;;;;;;4.12;100.00;100582.75;5038624;28;20120;-70
2024/03/01 01:58:50;;;;;;;41.30;26.95;;;;;;;4.12;100.00;100577.44;5040403;28;20555;-70
2024/03/01 02:01:17;;;;;;;39.40;26.17;;;;;;;4.11;100.00;100566.97;5037188;28;20025;-70
2024/03/01 02:03:43;;;;;;;40.97;26.33;;;;;;;4.10;100.00;100566.09;5021955;28;20039;-70
2024/03/01 02:06:08;;;;;;;38.80;25.33;;;;;;;3.98;100.00;100551.44;5039878;28;20033;-70
2024/03/01 02:08:35;;;;;;;40.10;25.17;;;;;;;4.04;100.00;100557.94;5021494;28;20021;-70
2024/03/01 02:11:02;;;;;;;36.28;24.55;;;;;;;4.01;100.00;100556.47;5037930;28;20099;-70
2024/03/01 02:13:28;;;;;;;37.67;24.20;;;;;;;3.99;100.00;100553.94;5038469;28;20096;-70
2024/03/01 02:15:53;;;;;;;37.65;25.50;;;;;;;3.83;100.00;100529.94;5037454;28;20120;-70
2024/03/01 02:18:19;;;;;;;36.95;24.63;;;;;;;3.74;100.00;100538.88;5021051;28;20496;-70
2024/03/01 02:20:51;;;;;;;41.65;25.83;;;;;;;3.80;100.00;100548.06;5037641;28;20029;-70
2024/03/01 02:23:21;;;;;;;38.00;25.95;;;;;;;3.71;100.00;100547.22;5039464;28;20026;-70
2024/03/01 02:25:47;;;;;;;37.08;23.98;;;;;;;3.65;100.00;100542.53;5037892;28;20041;-70
2024/03/01 02:28:12;;;;;;;39.85;25.02;;;;;;;3.61;100.00;100543.81;5037808;28;20040;-70
2024/03/01 02:30:38;;;;;;;38.53;24.88;;;;;;;3.55;100.00;100536.50;5039244;28;20018;-70
2024/03/01 02:33:03;;;;;;;37.40;25.02;;;;;;;3.47;100.00;100537.28;5039104;28;20053;-70
2024/03/01 02:35:29;;;;;;;38.53;25.95;;;;;;;3.37;100.00;100523.28;5037409;28;20128;-70
2024/03/01 02:37:54;;;;;;;39.88;26.27;;;;;;;3.39;100.00;100531.94;5021839;28;20500;-71
2024/03/01 02:40:19;;;;;;;41.63;26.92;;;;;;;3.33;100.00;100538.72;5037498;28;20551;-71
2024/03/01 02:42:46;;;;;;;38.78;25.63;;;;;;;3.26;100.00;100537.69;5020872;28;20033;-70
2024/03/01 02:45:11;;;;;;;39.85;25.17;;;;;;;3.22;100.00;100531.84;5037853;28;20080;-70
2024/03/01 02:47:37;;;;;;;43.70;26.75;;;;;;;3.17;100.00;100523.50;5037258;28;20488;-70
2024/03/01 02:50:03;;;;;;;41.35;25.98;;;;;;;3.14;100.00;100518.50;5037406;28;20052;-70
2024/03/01 02:52:28;;;;;;;41.58;24.63;;;;;;;3.09;100.00;100517.34;5037385;28;20030;-70
2024/03/01 02:54:53;;;;;;;41.72;25.83;;;;;;;3.04;100.00;100509.81;5036835;28;20527;-70
2024/03/01 02:57:19;;;;;;;39.88;26.17;;;;;;;3.01;100.00;100518.97;5037656;28;20037;-70
2024/03/01 02:59:47;;;;;;;43.58;26.15;;;;;;;2.83;100.00;100496.91;5037414;28;20038;-70
2024/03/01 03:02:12;;;;;;;42.00;26.52;;;;;;;2.99;100.00;100514.78;5039262;28;20030;-70
2024/03/01 03:04:38;;;;;;;43.47;27.73;;;;;;;2.94;100.00;100519.72;5038249;28;20052;-71
2024/03/01 03:07:04;;;;;;;40.30;26.15;;;;;;;2.91;100.00;100517.38;5038438;28;20056;-70
2024/03/01 03:09:29;;;;;;;43.58;26.77;;;;;;;2.85;100.00;100515.34;5040446;28;20072;-70
2024/03/01 03:11:55;;;;;;;39.85;24.40;;;;;;;2.84;100.00;100509.19;5042546;28;20522;-70
2024/03/01 03:14:20;;;;;;;42.75;27.42;;;;;;;2.83;100.00;100515.50;5041324;28;20061;-70
2024/03/01 03:16:46;;;;;;;42.13;26.48;;;;;;;2.72;100.00;100505.97;5042445;28;20029;-70
2024/03/01 03:19:11;;;;;;;44.75;27.95;;;;;;;2.74;100.00;100514.59;5042346;28;20095;-70
2024/03/01 03:21:36;;;;;;;44.65;27.45;;;;;;;2.74;100.00;100506.63;5041630;28;20105;-71
2024/03/01 03:24:02;;;;;;;45.22;26.50;;;;;;;2.63;100.00;100490.97;5041258;28;20056;-70
2024/03/01 03:26:27;;;;;;;42.03;27.13;;;;;;;2.68;100.00;100509.06;5042232;28;20040;-70
2024/03/01 03:28:53;;;;;;;43.80;27.25;;;;;;;2.68;100.00;100507.28;5025314;28;20026;-70
2024/03/01 03:31:18;;;;;;;45.00;28.45;;;;;;;2.66;100.00;100513.72;5041511;28;20045;-70
2024/03/01 03:33:43;;;;;;;46.78;28.10;;;;;;;2.66;100.00;100517.22;5042542;28;20447;-70
2024/03/01 03:36:10;;;;;;;47.17;27.42;;;;;;;2.69;100.00;100516.91;5041351;28;20037;-70
2024/03/01 03:38:35;;;;;;;44.70;26.90;;;;;;;2.70;100.00;100518.56;5039782;28;20043;-70
2024/03/01 03:41:00;;;;;;;45.03;27.95;;;;;;;2.68;100.00;100515.25;5040834;28;20110;-70
2024/03/01 03:43:26;;;;;;;45.10;27.65;;;;;;;2.62;100.00;100510.56;5040579;28;20120;-71
2024/03/01 03:45:51;;;;;;;44.15;27.90;;;;;;;2.70;100.00;100515.91;5041504;28;20029;-70
2024/03/01 03:48:17;;;;;;;45.25;27.38;;;;;;;2.70;100.00;100507.94;5007919;28;20096;-70
2024/03/01 03:50:43;;;;;;;43.03;27.63;;;;;;;2.68;100.00;100515.25;5041846;28;20126;-71
2024/03/01 03:53:08;;;;;;;41.53;27.40;;;;;;;2.73;100.00;100520.09;5042234;28;20040;-71
2024/03/01 03:55:33;;;;;;;44.40;26.80;;;;;;;2.73;100.00;100510.28;5039404;28;20022;-70
2024/03/01 03:57:59;;;;;;;45.38;28.67;;;;;;;2.74;100.00;100514.59;5038910;28;20524;-70
2024/03/01 04:00:24;;;;;;;47.50;29.10;;;;;;;2.77;100.00;100502.84;5020160;28;20125;-70
2024/03/01 04:02:49;;;;;;;45.80;28.55;;;;;;;2.80;100.00;100506.00;5036603;28;20080;-70
2024/03/01 04:05:16;;;;;;;46.20;27.55;;;;;;;2.81;100.00;100497.06;5020254;28;20037;-70
2024/03/01 04:07:43;;;;;;;43.03;27.83;;;;;;;2.85;100.00;100496.72;5037714;28;20026;-70
2024/03/01 04:10:09;;;;;;;44.55;27.55;;;;;;;2.82;100.00;100505.88;5036537;28;20089;-70
2024/03/01 04:12:36;;;;;;;48.90;29.17;;;;;;;2.88;100.00;100507.91;5036994;28;20030;-71
2024/03/01 04:15:04;;;;;;;47.53;29.85;;;;;;;2.91;100.00;100512.06;5038516;28;20029;-70
2024/03/01 04:17:30;;;;;;;46.53;28.98;;;;;;;2.77;100.00;100474.44;5036522;28;20067;-70
2024/03/01 04:19:55;;;;;;;43.67;27.52;;;;;;;2.91;100.00;100496.13;5036072;28;20025;-71
2024/03/01 04:22:21;;;;;;;46.00;29.90;;;;;;;2.93;100.00;100502.94;5036543;28;20056;-70
2024/03/01 04:24:46;;;;;;;46.15;29.92;;;;;;;2.96;100.00;100493.84;5037215;28;20547;-71
2024/03/01 04:27:11;;;;;;;47.78;30.38;;;;;;;3.00;100.00;100495.19;5042199;28;20108;-70
2024/03/01 04:29:37;;;;;;;48.13;30.67;;;;;;;2.99;100.00;100485.53;5024777;28;20026;-71
2024/03/01 04:32:07;;;;;;;48.50;31.02;;;;;;;3.04;100.00;100493.88;5040704;28;20041;-71
2024/03/01 04:34:32;;;;;;;47.70;30.23;;;;;;;3.05;100.00;100485.75;5024659;28;20128;-70
2024/03/01 04:36:58;;;;;;;44.45;28.38;;;;;;;3.11;100.00;100484.25;5024184;28;20045;-70
2024/03/01 04:39:26;;;;;;;46.85;30.05;;;;;;;3.03;100.00;100477.09;5042280;28;20050;-70
2024/03/01 04:41:52;;;;;;;48.30;28.17;;;;;;;3.09;100.00;100475.63;5044163;28;20022;-70
2024/03/01 04:44:17;;;;;;;46.40;29.52;;;;;;;3.02;100.00;100466.63;5048234;28;20027;-70
2024/03/01 04:46:43;;;;;;;49.03;30.73;;;;;;;3.00;100.00;100465.94;5051834;28;20034;-70
2024/03/01 04:49:08;;;;;;;49.92;30.35;;;;;;;3.09;100.00;100488.09;5051873;28;20020;-71
2024/03/01 04:51:34;;;;;;;44.15;28.23;;;;;;;3.02;100.00;100485.22;5043173;28;20515;-70
2024/03/01 04:54:00;;;;;;;48.00;30.77;;;;;;;3.08;100.00;100489.91;5042554;28;20515;-71
2024/03/01 04:56:25;;;;;;;49.80;29.05;;;;;;;2.91;100.00;100465.06;5042570;28;20036;-70
2024/03/01 04:58:51;;;;;;;45.10;28.98;;;;;;;3.06;100.00;100487.41;5042499;28;20124;-70
2024/03/01 05:01:16;;;;;;;46.47;28.30;;;;;;;3.06;100.00;100498.03;5025803;28;20067;-70
2024/03/01 05:03:44;;;;;;;49.40;30.40;;;;;;;2.97;100.00;100480.38;5043063;28;20021;-70
2024/03/01 05:06:11;;;;;;;44.83;28.98;;;;;;;3.04;100.00;100499.19;5043021;28;20096;-71
2024/03/01 05:08:36;;;;;;;44.40;28.77;;;;;;;3.01;100.00;100495.03;5023019;28;20040;-70
2024/03/01 05:11:02;;;;;;;45.35;29.75;;;;;;;2.87;100.00;100486.78;5040537;28;20037;-70
2024/03/01 05:13:28;;;;;;;48.55;29.48;;;;;;;2.99;100.00;100496.19;5040359;28;20018;-70
2024/03/01 05:15:54;;;;;;;47.40;29.60;;;;;;;2.97;100.00;100495.50;5040062;28;20108;-70
2024/03/01 05:18:19;;;;;;;44.03;28.65;;;;;;;2.88;100.00;100475.16;5024276;28;20029;-70
2024/03/01 05:20:45;;;;;;;49.08;30.10;;;;;;;2.98;100.00;100492.69;5042271;28;20037;-71
2024/03/01 05:23:11;;;;;;;44.88;29.95;;;;;;;2.97;100.00;100487.50;5042752;28;20060;-71
2024/03/01 05:25:37;;;;;;;44.53;28.83;;;;;;;2.98;100.00;100483.84;5024413;28;20045;-70
2024/03/01 05:28:03;;;;;;;44.38;29.05;;;;;;;2.97;100.00;100482.19;5042094;28;20033;-70
2024/03/01 05:30:31;;;;;;;43.83;29.27;;;;;;;2.82;100.00;100464.19;5041381;28;20025;-70
2024/03/01 05:32:57;;;;;;;45.15;28.23;;;;;;;3.01;100.00;100486.19;5041733;28;20074;-70
2024/03/01 05:35:22;;;;;;;46.78;29.42;;;;;;;3.02;100.00;100488.72;5042005;28;20101;-71
2024/03/01 05:37:48;;;;;;;44.88;28.63;;;;;;;3.02;100.00;100494.03;5041339;28;20043;-71
2024/03/01 05:40:14;;;;;;;48.75;29.95;;;;;;;2.99;100.00;100496.19;5040469;28;20048;-71
2024/03/01 05:42:44;;;;;;;46.03;27.67;;;;;;;3.06;100.00;100505.19;5041863;28;20035;-70
2024/03/01 05:45:11;;;;;;;44.25;28.23;;;;;;;3.07;100.00;100506.84;5040846;28;20067;-71
2024/03/01 05:47:42;;;;;;;42.30;28.17;;;;;;;3.12;100.00;100503.72;5043123;28;20033;-70
2024/03/01 05:50:09;;;;;;;42.40;27.90;;;;;;;3.12;100.00;100501.06;5042082;28;20036;-71
2024/03/01 05:52:36;;;;;;;43.63;27.60;;;;;;;3.15;100.00;100509.56;5024359;28;20025;-71
2024/03/01 05:55:08;;;;;;;40.50;26.23;;;;;;;3.22;100.00;100507.94;5041051;28;20029;-71
2024/03/01 05:57:34;;;;;;;41.55;28.17;;;;;;;3.24;100.00;100515.72;5040587;28;20031;-72
2024/03/01 06:00:00;;;;;;;44.45;27.92;;;;;;;3.24;100.00;100515.72;5042912;28;20029;-71
2024/03/01 06:02:26;;;;;;;42.85;28.20;;;;;;;3.23;100.00;100509.59;5038019;28;20222;-71
2024/03/01 06:04:51;;;;;;;44.33;29.08;;;;;;;3.19;100.00;100508.25;5038976;28;20107;-71
2024/03/01 06:07:17;;;;;;;39.80;27.13;;;;;;;3.25;100.00;100512.09;5038417;28;20508;-71
2024/03/01 06:09:44;;;;;;;45.67;29.60;;;;;;;3.30;100.00;100510.59;5039112;28;20032;-70
2024/03/01 06:12:09;;;;;;;40.35;27.65;;;;;;;3.35;100.00;100504.84;5041281;28;20033;-71
2024/03/01 06:14:40;;;;;;;37.38;26.50;;;;;;;3.30;100.00;100509.78;5042633;28;20298;-70
2024/03/01 06:17:05;;;;;;;37.92;26.60;;;;;;;3.23;100.00;100493.63;5040743;28;20368;-71
2024/03/01 06:19:31;;;;;;;36.10;25.20;;;;;;;3.43;100.00;100515.50;5040752;28;20396;-71
2024/03/01 06:21:56;;;;;;;41.03;26.17;;;;;;;3.49;100.00;100522.84;5023009;28;20045;-71
2024/03/01 06:24:22;;;;;;;39.78;26.88;;;;;;;3.45;100.00;100497.56;5019275;28;20034;-71
2024/03/01 06:26:49;;;;;;;39.08;26.13;;;;;;;3.59;100.00;100520.06;5002857;28;20465;-71
2024/03/01 06:29:15;;;;;;;40.28;25.65;;;;;;;3.64;100.00;100517.75;5021964;28;20034;-71
2024/03/01 06:31:41;;;;;;;39.72;26.30;;;;;;;3.71;100.00;100518.78;5021124;28;20034;-70
2024/03/01 06:34:07;;;;;;;36.25;25.25;;;;;;;3.77;100.00;100522.59;5021741;28;20034;-71
2024/03/01 06:36:32;;;;;;;36.92;24.23;;;;;;;3.82;100.00;100514.97;5021129;28;20544;-71
2024/03/01 06:38:58;;;;;;;34.38;24.02;;;;;;;3.88;100.00;100516.16;5020908;28;20046;-71
2024/03/01 06:41:24;;;;;;;37.30;24.67;;;;;;;3.96;100.00;100524.16;5019396;28;20022;-70
2024/03/01 06:43:50;;;;;;;35.40;23.40;;;;;;;4.04;100.00;100520.66;5018631;28;20021;-70
2024/03/01 06:46:15;;;;;;;34.88;24.48;;;;;;;4.09;100.00;100519.19;5020343;28;20025;-70
2024/03/01 06:48:41;;;;;;;31.27;23.33;;;;;;;4.00;100.00;100502.34;5024558;28;20032;-71
2024/03/01 06:51:06;;;;;;;32.78;22.92;;;;;;;4.23;100.00;100526.50;5028890;28;20030;-70
2024/03/01 06:53:31;;;;;;;33.95;22.75;;;;;;;4.34;100.00;100521.88;5018634;28;20037;-69
2024/03/01 06:55:57;;;;;;;29.73;20.98;;;;;;;4.46;100.00;100524.03;5028374;28;20040;-71
2024/03/01 06:58:22;;;;;;;28.35;20.63;;;;;;;4.55;100.00;100516.88;5029636;28;20021;-71
2024/03/01 07:00:48;;;;;;;31.75;20.73;;;;;;;4.46;100.00;100486.75;5027495;28;20098;-70
2024/03/01 07:03:14;;;;;;;29.13;20.92;;;;;;;4.71;100.00;100518.72;5026961;28;20033;-71
2024/03/01 07:05:39;;;;;;;26.80;18.33;;;;;;;4.77;100.00;100520.72;5044877;28;20033;-75
2024/03/01 07:08:05;;;;;;;28.55;20.67;;;;;;;4.78;100.00;100509.03;5029381;28;20030;-69
2024/03/01 07:10:31;;;;;;;33.40;20.95;;;;;;;4.89;100.00;100518.53;5008083;28;20041;-70
2024/03/01 07:12:57;;;;;;;30.92;19.67;;;;;;;4.93;100.00;100514.50;5043506;28;20553;-70
2024/03/01 07:15:22;;;;;;;29.95;19.98;;;;;;;4.96;100.00;100511.50;5044647;28;20057;-71
2024/03/01 07:17:47;;;;;;;26.73;20.52;;;;;;;4.98;100.00;100517.50;5044727;28;20089;-71
2024/03/01 07:20:13;;;;;;;28.30;19.92;;;;;;;5.03;100.00;100519.66;5021998;28;20532;-72
2024/03/01 07:22:39;;;;;;;30.75;21.02;;;;;;;5.05;100.00;100517.66;5038819;28;20037;-70
2024/03/01 07:25:05;;;;;;;28.65;20.40;;;;;;;5.10;100.00;100507.31;5020259;28;20037;-70
2024/03/01 07:27:34;;;;;;;28.05;19.67;;;;;;;5.10;100.00;100501.97;5035504;28;20029;-70
2024/03/01 07:30:00;;;;;;;28.30;20.00;;;;;;;5.14;100.00;100516.66;5024651;28;20034;-70
2024/03/01 07:32:25;;;;;;;29.00;19.90;;;;;;;5.22;100.00;100515.78;5041666;28;20029;-70
2024/03/01 07:34:52;;;;;;;26.20;18.38;;;;;;;5.17;100.00;100516.31;5024858;28;20025;-70
2024/03/01 07:37:17;;;;;;;26.00;17.88;;;;;;;5.18;100.00;100510.78;5040989;28;20029;-70
2024/03/01 07:39:42;;;;;;;25.55;19.08;;;;;;;5.29;100.00;100520.25;5044294;28;20195;-70
2024/03/01 07:42:08;;;;;;;26.92;19.33;;;;;;;5.33;100.00;100516.25;5046656;28;20022;-70
2024/03/01 07:44:34;;;;;;;25.88;17.55;;;;;;;5.25;100.00;100496.78;5044509;28;20029;-70
2024/03/01 07:47:02;;;;;;;24.95;17.73;;;;;;;5.44;100.00;100511.56;5045489;28;20029;-70
2024/03/01 07:49:28;;;;;;;27.30;18.38;;;;;;;5.43;100.00;100505.38;5047700;28;20025;-70
2024/03/01 07:51:55;;;;;;;27.90;17.73;;;;;;;5.53;100.00;100511.34;5044974;28;20056;-70
2024/03/01 07:54:20;;;;;;;26.08;18.88;;;;;;;5.52;100.00;100504.31;5043779;28;20041;-70
2024/03/01 07:56:46;;;;;;;29.63;18.05;;;;;;;5.60;100.00;100512.31;5019298;28;20496;-70
2024/03/01 07:59:11;;;;;;;28.23;18.55;;;;;;;5.68;100.00;100516.78;5018847;28;20034;-69
2024/03/01 08:01:37;;;;;;;27.50;19.30;;;;;;;5.74;100.00;100510.72;5035362;28;20481;-69
2024/03/01 08:04:02;;;;;;;27.02;18.55;;;;;;;5.66;100.00;100486.72;5035318;28;20236;-69
2024/03/01 08:06:29;;;;;;;26.10;17.95;;;;;;;5.68;100.00;100467.91;5019864;28;20124;-69
2024/03/01 08:08:54;;;;;;;27.27;18.30;;;;;;;5.87;100.00;100494.16;5037225;28;20025;-71
2024/03/01 08:11:47;;;;;;;28.08;19.48;;;;;;;5.89;100.00;100495.66;5037604;28;20032;-69
2024/03/01 08:14:25;;;;;;;29.70;19.55;;;;;;;5.94;100.00;100503.16;5037617;28;20052;-70
2024/03/01 08:16:52;;;;;;;26.10;17.65;;;;;;;5.92;100.00;100493.59;5039410;28;20033;-69
2024/03/01 08:19:19;;;;;;;31.52;19.90;;;;;;;6.02;100.00;100502.25;5023067;28;20033;-70
2024/03/01 08:21:45;;;;;;;30.83;19.58;;;;;;;6.05;100.00;100494.72;5037282;28;20036;-69
2024/03/01 08:24:12;;;;;;;28.52;19.65;;;;;;;5.96;100.00;100498.47;5038769;28;20072;-69
2024/03/01 08:26:37;;;;;;;28.50;20.33;;;;;;;6.05;100.00;100499.22;5039135;28;20091;-69
2024/03/01 08:29:03;;;;;;;32.47;19.85;;;;;;;6.09;100.00;100497.88;5022511;28;20030;-70
2024/03/01 08:31:34;;;;;;;32.55;20.25;;;;;;;6.11;100.00;100490.50;5038790;28;20029;-69
2024/03/01 08:34:07;;;;;;;32.88;19.58;;;;;;;6.03;100.00;100501.28;5037971;28;20136;-69
2024/03/01 08:36:34;;;;;;;32.90;20.58;;;;;;;5.99;100.00;100495.41;5038376;28;20611;-69
2024/03/01 08:38:59;;;;;;;30.48;20.15;;;;;;;6.14;100.00;100503.53;5037653;28;20053;-69
2024/03/01 08:41:26;;;;;;;33.97;19.50;;;;;;;6.19;100.00;100502.97;5038875;28;20440;-69
2024/03/01 08:43:53;;;;;;;31.65;19.52;;;;;;;6.16;100.00;100503.31;5044130;28;20037;-69
2024/03/01 08:46:33;;;;;;;30.13;20.10;;;;;;;6.20;100.00;100508.16;5047873;28;20048;-70
2024/03/01 08:49:03;;;;;;;31.15;19.67;;;;;;;6.29;100.00;100508.91;5048175;28;20029;-70
2024/03/01 08:51:28;;;;;;;31.42;20.52;;;;;;;6.26;100.00;100496.75;5047015;28;20018;-69
2024/03/01 08:53:58;;;;;;;34.50;19.58;;;;;;;6.33;100.00;100499.53;5047349;28;20037;-70
2024/03/01 08:56:35;;;;;;;31.75;19.63;;;;;;;6.44;100.00;100496.44;5047674;28;20025;-70
2024/03/01 08:59:24;;;;;;;33.47;20.23;;;;;;;6.56;100.00;100489.66;5049451;28;20033;-70
2024/03/01 09:01:50;;;;;;;31.67;19.95;;;;;;;6.66;100.00;100496.59;5040200;28;20029;-70
2024/03/01 09:04:27;;;;;;;30.95;19.17;;;;;;;6.71;100.00;100494.19;5041538;28;20037;-70
2024/03/01 09:07:07;;;;;;;30.15;19.95;;;;;;;6.74;100.00;100504.53;5035817;28;20033;-70
2024/03/01 09:09:35;;;;;;;29.52;19.27;;;;;;;6.75;100.00;100482.13;5043143;28;20037;-71
2024/03/01 09:12:01;;;;;;;30.58;18.25;;;;;;;6.86;100.00;100492.41;5036650;28;20013;-71
2024/03/01 09:14:31;;;;;;;31.25;19.63;;;;;;;6.89;100.00;100492.03;5054996;28;20435;-69
2024/03/01 09:16:59;;;;;;;33.90;19.50;;;;;;;6.90;100.00;100492.84;5053659;28;20150;-70
2024/03/01 09:19:25;;;;;;;32.63;19.25;;;;;;;6.99;100.00;100491.75;5050661;28;20089;-69
2024/03/01 09:21:51;;;;;;;33.50;18.38;;;;;;;7.03;100.00;100493.88;5050715;28;20032;-69
2024/03/01 09:24:18;;;;;;;28.77;18.75;;;;;;;7.13;100.00;100495.47;5051964;28;20053;-71
2024/03/01 09:26:46;;;;;;;29.38;18.30;;;;;;;7.16;100.00;100498.59;5050092;28;20120;-70
2024/03/01 09:29:35;;;;;;;30.38;18.75;;;;;;;7.24;100.00;100500.34;5050706;28;20088;-69
2024/03/01 09:32:01;;;;;;;29.48;18.73;;;;;;;7.22;100.00;100495.19;5043696;28;20443;-69
2024/03/01 09:34:34;;;;;;;30.02;19.13;;;;;;;7.30;100.00;100499.59;5042712;28;20029;-69
2024/03/01 09:37:00;;;;;;;28.45;18.83;;;;;;;7.34;100.00;100492.84;5042471;28;20033;-69
2024/03/01 09:39:25;;;;;;;28.90;18.08;;;;;;;7.48;100.00;100502.75;5040909;28;20104;-70
2024/03/01 09:41:51;;;;;;;30.23;18.27;;;;;;;7.54;100.00;100504.66;5041305;28;20057;-70
2024/03/01 09:44:38;;;;;;;28.75;17.80;;;;;;;7.53;100.00;100500.31;5041076;28;20037;-69
2024/03/01 09:47:12;;;;;;;31.55;19.45;;;;;;;7.60;100.00;100508.44;5040954;28;20025;-70
2024/03/01 09:49:47;;;;;;;30.95;18.80;;;;;;;7.54;100.00;100501.97;5040283;28;20022;-69
2024/03/01 09:52:39;;;;;;;30.20;18.88;;;;;;;7.62;100.00;100497.56;5039797;28;20030;-69
2024/03/01 09:55:43;;;;;;;33.42;18.83;;;;;;;7.69;100.00;100498.47;5040664;28;20060;-69
2024/03/01 09:58:21;;;;;;;31.75;20.00;;;;;;;7.75;100.00;100511.09;5032302;28;20045;-70
2024/03/01 10:01:09;;;;;;;32.83;18.92;;;;;;;7.78;100.00;100502.66;5041713;28;20022;-71
2024/03/01 10:04:06;;;;;;;30.02;19.45;;;;;;;7.87;100.00;100501.53;5042115;28;20030;-71
2024/03/01 10:06:50;;;;;;;32.20;18.35;;;;;;;7.82;100.00;100493.25;5042596;28;20079;-70
2024/03/01 10:09:55;;;;;;;33.20;18.38;;;;;;;7.85;100.00;100502.78;5041503;28;20017;-70
2024/03/01 10:12:55;;;;;;;32.13;19.08;;;;;;;7.82;100.00;100508.50;5041588;28;20029;-71
2024/03/01 10:15:45;;;;;;;33.28;19.30;;;;;;;7.90;100.00;100481.59;5040938;28;20042;-69
2024/03/01 10:18:46;;;;;;;35.67;20.17;;;;;;;7.89;100.00;100485.28;5040883;28;20018;-70
2024/03/01 10:21:27;;;;;;;35.42;20.08;;;;;;;7.95;100.00;100487.22;5040372;28;20029;-69
2024/03/01 10:23:59;;;;;;;33.17;19.55;;;;;;;7.91;100.00;100485.91;5040095;28;20029;-69
2024/03/01 10:26:30;;;;;;;35.88;19.65;;;;;;;7.92;100.00;100485.75;5039719;28;20029;-69
2024/03/01 10:29:19;;;;;;;34.75;19.90;;;;;;;7.95;100.00;100482.69;5039873;28;20022;-69
2024/03/01 10:32:22;;;;;;;33.25;20.05;;;;;;;7.93;100.00;100468.63;5041604;28;20037;-69
2024/03/01 10:35:01;;;;;;;32.25;19.38;;;;;;;8.07;100.00;100492.91;5041378;28;20029;-70
2024/03/01 10:37:35;;;;;;;33.97;20.67;;;;;;;8.02;100.00;100479.25;5037753;28;20033;-69
2024/03/01 10:40:14;;;;;;;32.72;20.40;;;;;;;8.12;100.00;100485.94;5038643;28;20049;-69
2024/03/01 10:42:43;;;;;;;33.20;20.40;;;;;;;8.19;100.00;100478.81;5038732;28;20025;-70
2024/03/01 10:45:17;;;;;;;40.17;22.00;;;;;;;8.23;100.00;100480.06;5021471;28;20095;-69
2024/03/01 10:47:43;;;;;;;36.63;21.25;;;;;;;8.16;100.00;100478.34;5038305;28;20021;-69
2024/03/01 10:50:22;;;;;;;33.10;21.75;;;;;;;8.21;100.00;100492.00;5038297;28;20040;-70
2024/03/01 10:53:02;;;;;;;34.85;21.35;;;;;;;8.26;100.00;100478.88;5003540;28;20029;-69
2024/03/01 10:55:33;;;;;;;34.67;21.15;;;;;;;8.37;100.00;100481.03;5038084;28;20023;-69
2024/03/01 10:58:22;;;;;;;36.15;21.00;;;;;;;8.38;100.00;100481.91;5036781;28;20033;-70
2024/03/01 11:00:52;;;;;;;36.83;21.30;;;;;;;8.43;100.00;100474.91;5036764;28;20451;-73
2024/03/01 11:03:29;;;;;;;38.47;21.75;;;;;;;8.55;100.00;100467.19;5037437;28;20032;-69
2024/03/01 11:06:23;;;;;;;42.38;22.45;;;;;;;8.65;100.00;100462.31;5040794;28;20032;-71
2024/03/01 11:09:24;;;;;;;37.25;21.63;;;;;;;8.70;100.00;100459.03;5040090;28;20041;-70
2024/03/01 11:12:03;;;;;;;36.78;21.00;;;;;;;8.73;100.00;100458.66;5040184;28;20061;-70
2024/03/01 11:14:32;;;;;;;35.90;21.05;;;;;;;8.83;100.00;100459.13;5039463;28;20415;-69
2024/03/01 11:17:00;;;;;;;36.88;21.25;;;;;;;8.93;100.00;100456.09;5040178;28;20037;-70